Terminal Aerodrome Forecast
Issued by NWS Missoula, MT

Home | Current Version | Previous Version | Text Only | Print | Product List | Glossary On
Versions: 1 2 3 4 5 6 7 8 9 10 11 12 13 14 15 16 17 18 19 20 21
150
FTUS45 KMSO 230602 AAA
TAFBTM
TAF AMD
KBTM 230602Z 2306/2406 15005KT P6SM SCT005 BKN040 OVC050
     FM230900 15005KT 4SM -SN BR SCT005 BKN030 OVC040
      TEMPO 2311/2314 2SM -SN BR BKN012
     FM231800 33011KT P6SM VCSH SCT040 OVC050=

USA.gov is the U.S. government's official web portal to all federal, state and local government web resources and services.